This is the latest recevied weather packets stored in our database for station/object TA3HRJ-12. If no packets are shown the sender has not sent any weather packets the latest 10 day(s).
| Time | Temp. | Humidity | Pressure | Rain* | Wind** | Luminosity | Snow |
|---|---|---|---|---|---|---|---|
| 1778109946 | 16.67° C | 32% | 1029.8 hPa | - | - | - | - |
| 1778109046 | 16.67° C | 32% | 1029.8 hPa | - | - | - | - |
| 1778108145 | 17.22° C | 31% | 1029.8 hPa | - | - | - | - |
| 1778107245 | 16.67° C | 31% | 1029.7 hPa | - | - | - | - |
| 1778106345 | 16.67° C | 29% | 1029.7 hPa | - | - | - | - |
| 1778105445 | 16.11° C | 30% | 1029.8 hPa | - | - | - | - |
| 1778104545 | 16.11° C | 31% | 1029.9 hPa | - | - | - | - |
| 1778103644 | 16.11° C | 31% | 1029.8 hPa | - | - | - | - |
| 1778102744 | 15.56° C | 33% | 1029.8 hPa | - | - | - | - |
| 1778101844 | 16.67° C | 31% | 1029.7 hPa | - | - | - | - |
| 1778100944 | 16.67° C | 31% | 1029.6 hPa | - | - | - | - |
| 1778100044 | 16.67° C | 32% | 1029.7 hPa | - | - | - | - |
| 1778099144 | 16.67° C | 33% | 1029.7 hPa | - | - | - | - |
| 1778098244 | 16.67° C | 33% | 1029.6 hPa | - | - | - | - |
| 1778097344 | 17.78° C | 31% | 1029.7 hPa | - | - | - | - |
| 1778096444 | 17.78° C | 30% | 1029.7 hPa | - | - | - | - |
| 1778095544 | 17.22° C | 29% | 1029.7 hPa | - | - | - | - |
| 1778094643 | 17.78° C | 31% | 1029.6 hPa | - | - | - | - |
| 1778093743 | 17.78° C | 31% | 1029.6 hPa | - | - | - | - |
| 1778092843 | 17.78° C | 32% | 1029.5 hPa | - | - | - | - |
| 1778091943 | 18.33° C | 32% | 1029.5 hPa | - | - | - | - |
| 1778091043 | 17.22° C | 33% | 1029.5 hPa | - | - | - | - |
| 1778090143 | 17.78° C | 32% | 1029.4 hPa | - | - | - | - |
| 1778089243 | 17.22° C | 32% | 1029.2 hPa | - | - | - | - |
| 1778088343 | 18.89° C | 29% | 1028.9 hPa | - | - | - | - |
* Rain since midnight (hover to see other rain measurements)
** Current wind speed in m/s (hover to see current wind gust speed)